Time;durP1;ratioP1;P1;durP2;ratioP2;P2;SDS_P1;SDS_P2;PMS_P1;PMS_P2;Temp;Humidity;BMP_temperature;BMP_pressure;BME280_temperature;BME280_humidity;BME280_pressure;Samples;Min_cycle;Max_cycle;Signal;HPM_P1;HPM_P2
2023/04/06 00:00:08;;;;;;;;;11.00;10.00;;;;;;;;5047374;28;13352;-73
2023/04/06 00:02:33;;;;;;;;;11.00;10.00;;;;;;;;5047247;28;13424;-73
2023/04/06 00:04:59;;;;;;;;;12.00;12.00;;;;;;;;5047198;28;13418;-77
2023/04/06 00:07:24;;;;;;;;;12.50;10.75;;;;;;;;5028605;28;13449;-76
2023/04/06 00:09:49;;;;;;;;;10.00;10.00;;;;;;;;5038466;28;13414;-76
2023/04/06 00:12:15;;;;;;;;;9.75;9.50;;;;;;;;5037641;28;13454;-76
2023/04/06 00:14:40;;;;;;;;;9.50;9.50;;;;;;;;5036556;28;13390;-76
2023/04/06 00:17:05;;;;;;;;;8.00;8.00;;;;;;;;5037757;28;13366;-77
2023/04/06 00:19:31;;;;;;;;;11.00;10.00;;;;;;;;5037733;28;14153;-77
2023/04/06 00:21:56;;;;;;;;;10.33;8.33;;;;;;;;5036195;28;13404;-77
2023/04/06 00:24:21;;;;;;;;;9.50;9.50;;;;;;;;5036077;28;13254;-78
2023/04/06 00:26:47;;;;;;;;;9.00;9.00;;;;;;;;5037118;28;13396;-77
2023/04/06 00:29:12;;;;;;;;;13.25;12.25;;;;;;;;5038400;28;13328;-77
2023/04/06 00:31:37;;;;;;;;;13.67;11.00;;;;;;;;5037951;28;13333;-76
2023/04/06 00:34:03;;;;;;;;;10.00;9.75;;;;;;;;5037442;28;13375;-76
2023/04/06 00:36:28;;;;;;;;;12.00;9.00;;;;;;;;5036491;28;13340;-77
2023/04/06 00:38:54;;;;;;;;;9.00;9.00;;;;;;;;5037470;28;13348;-79
2023/04/06 00:41:20;;;;;;;;;12.25;9.00;;;;;;;;5038206;28;14013;-77
2023/04/06 00:43:45;;;;;;;;;13.75;10.25;;;;;;;;5036058;28;13361;-76
2023/04/06 00:46:11;;;;;;;;;13.33;12.33;;;;;;;;5038989;28;13355;-75
2023/04/06 00:48:36;;;;;;;;;11.33;11.33;;;;;;;;5035293;28;13383;-75
2023/04/06 00:51:01;;;;;;;;;12.00;11.67;;;;;;;;5037173;28;13390;-76
2023/04/06 00:53:27;;;;;;;;;11.00;11.00;;;;;;;;5036219;28;13362;-76
2023/04/06 05:32:15;;;;;;;;;13.00;13.00;;;;;;;;5104739;27;13413;-72
2023/04/06 05:34:41;;;;;;;;;14.50;12.75;;;;;;;;5101003;28;13509;-74
2023/04/06 05:37:06;;;;;;;;;18.00;14.25;;;;;;;;5093134;28;13537;-74
2023/04/06 05:39:31;;;;;;;;;17.33;13.67;;;;;;;;5084169;28;13652;-74
2023/04/06 05:41:56;;;;;;;;;13.00;12.50;;;;;;;;5083998;28;13540;-74
2023/04/06 05:44:22;;;;;;;;;16.50;14.00;;;;;;;;5084228;28;13500;-74
2023/04/06 05:46:47;;;;;;;;;13.33;13.33;;;;;;;;5095459;28;14431;-74
2023/04/06 05:49:12;;;;;;;;;19.33;19.00;;;;;;;;5104177;28;13658;-74
2023/04/06 05:51:38;;;;;;;;;20.00;16.67;;;;;;;;5104105;28;13515;-74
2023/04/06 05:54:03;;;;;;;;;19.33;16.33;;;;;;;;5104152;28;13557;-75
2023/04/06 05:56:30;;;;;;;;;22.33;20.00;;;;;;;;5102749;28;13674;-72
2023/04/06 05:58:55;;;;;;;;;21.00;20.75;;;;;;;;5103941;28;13551;-72
2023/04/06 06:01:20;;;;;;;;;20.50;20.50;;;;;;;;5103504;28;13583;-72
2023/04/06 06:03:46;;;;;;;;;18.50;18.50;;;;;;;;5102286;28;13514;-70
2023/04/06 06:06:11;;;;;;;;;19.00;18.33;;;;;;;;5101719;28;13499;-71
2023/04/06 06:08:36;;;;;;;;;16.00;15.50;;;;;;;;5101709;28;14169;-72
2023/04/06 06:11:01;;;;;;;;;13.00;13.00;;;;;;;;5101538;28;13515;-70
2023/04/06 06:13:27;;;;;;;;;16.67;14.00;;;;;;;;5101209;28;13480;-70
2023/04/06 06:15:52;;;;;;;;;18.25;16.50;;;;;;;;5101122;28;14258;-71
2023/04/06 06:18:17;;;;;;;;;20.75;16.25;;;;;;;;5101263;28;13608;-71
2023/04/06 06:20:43;;;;;;;;;19.00;16.33;;;;;;;;5103416;28;13499;-71
2023/04/06 06:23:08;;;;;;;;;16.25;16.25;;;;;;;;5103509;28;13485;-71
2023/04/06 06:25:33;;;;;;;;;17.00;15.00;;;;;;;;5099947;28;13511;-70
2023/04/06 06:27:59;;;;;;;;;17.75;16.00;;;;;;;;5103407;28;13652;-69
2023/04/06 06:30:24;;;;;;;;;15.80;15.00;;;;;;;;5103327;28;14239;-71
2023/04/06 06:32:50;;;;;;;;;17.25;16.50;;;;;;;;5103153;28;13492;-70
2023/04/06 06:35:15;;;;;;;;;17.25;14.75;;;;;;;;5105209;27;13489;-73
2023/04/06 06:37:40;;;;;;;;;25.00;21.00;;;;;;;;5101814;28;13670;-73
2023/04/06 06:40:06;;;;;;;;;15.00;14.00;;;;;;;;5101812;28;13500;-72
2023/04/06 06:42:31;;;;;;;;;20.20;18.00;;;;;;;;5095568;28;13491;-77
2023/04/06 06:44:57;;;;;;;;;26.00;20.00;;;;;;;;5089020;28;13518;-71
2023/04/06 06:47:22;;;;;;;;;24.00;20.67;;;;;;;;5087476;28;13508;-71
2023/04/06 06:49:48;;;;;;;;;23.50;21.50;;;;;;;;5088091;28;13477;-71
2023/04/06 06:52:13;;;;;;;;;23.00;21.00;;;;;;;;5089062;28;14169;-70
2023/04/06 06:54:39;;;;;;;;;22.75;21.00;;;;;;;;5092354;28;13477;-71
2023/04/06 06:57:04;;;;;;;;;21.50;17.75;;;;;;;;5108781;28;13470;-69
2023/04/06 06:59:29;;;;;;;;;22.00;21.67;;;;;;;;5108187;28;13473;-69
2023/04/06 07:01:55;;;;;;;;;27.00;21.00;;;;;;;;5109274;28;13525;-69
2023/04/06 07:04:20;;;;;;;;;28.00;20.75;;;;;;;;5104329;28;13494;-70
2023/04/06 07:06:45;;;;;;;;;20.75;20.75;;;;;;;;5102412;28;13487;-69
2023/04/06 07:09:11;;;;;;;;;21.75;20.00;;;;;;;;5109354;28;13437;-69
2023/04/06 07:11:36;;;;;;;;;18.00;18.00;;;;;;;;5109337;27;13498;-69
2023/04/06 07:14:01;;;;;;;;;24.50;23.00;;;;;;;;5105938;28;14255;-68
2023/04/06 07:16:27;;;;;;;;;21.67;19.00;;;;;;;;5101075;28;13621;-68
2023/04/06 07:18:52;;;;;;;;;21.33;19.67;;;;;;;;5088875;28;13538;-68
2023/04/06 07:21:17;;;;;;;;;19.67;19.67;;;;;;;;5088761;28;14370;-68
2023/04/06 07:23:43;;;;;;;;;19.50;19.50;;;;;;;;5087535;28;14044;-68
2023/04/06 07:26:08;;;;;;;;;27.25;25.50;;;;;;;;5087141;28;13508;-68
2023/04/06 07:28:33;;;;;;;;;28.25;27.25;;;;;;;;5087163;28;13541;-69
2023/04/06 07:30:59;;;;;;;;;32.00;28.67;;;;;;;;5088474;28;13567;-68
2023/04/06 07:33:24;;;;;;;;;31.00;26.25;;;;;;;;5088592;28;13474;-68
2023/04/06 07:35:50;;;;;;;;;25.25;22.00;;;;;;;;5087184;28;13562;-71
2023/04/06 07:38:15;;;;;;;;;24.75;22.00;;;;;;;;5088560;28;13593;-69
2023/04/06 07:40:41;;;;;;;;;25.25;20.75;;;;;;;;5088249;28;13557;-69
2023/04/06 07:43:06;;;;;;;;;28.00;23.67;;;;;;;;5088340;28;13531;-69
2023/04/06 07:45:31;;;;;;;;;21.33;18.67;;;;;;;;5087595;28;13568;-70
2023/04/06 07:47:57;;;;;;;;;24.00;23.00;;;;;;;;5088520;28;13593;-69
2023/04/06 07:50:22;;;;;;;;;26.50;25.50;;;;;;;;5088395;28;13639;-69
2023/04/06 07:52:47;;;;;;;;;19.00;18.67;;;;;;;;5088428;28;13514;-69
2023/04/06 07:55:13;;;;;;;;;26.00;22.25;;;;;;;;5086003;28;14315;-68
2023/04/06 07:57:38;;;;;;;;;25.50;22.25;;;;;;;;5087958;28;13497;-70
2023/04/06 08:00:04;;;;;;;;;23.25;19.75;;;;;;;;5088198;28;13495;-68
2023/04/06 08:02:29;;;;;;;;;21.75;21.75;;;;;;;;5087936;28;13458;-69
2023/04/06 08:04:55;;;;;;;;;20.40;17.00;;;;;;;;5094227;28;13457;-68
2023/04/06 08:07:20;;;;;;;;;16.25;16.25;;;;;;;;5107902;28;14348;-68
2023/04/06 08:09:45;;;;;;;;;20.33;19.33;;;;;;;;5108763;28;14399;-68
2023/04/06 08:12:11;;;;;;;;;17.00;17.00;;;;;;;;5108138;28;13552;-68
2023/04/06 08:14:36;;;;;;;;;17.00;14.67;;;;;;;;5100217;28;13533;-69
2023/04/06 08:17:01;;;;;;;;;20.00;18.33;;;;;;;;5089878;28;13500;-69
2023/04/06 08:19:27;;;;;;;;;15.50;14.00;;;;;;;;5087831;28;13512;-69
2023/04/06 08:21:52;;;;;;;;;15.00;13.00;;;;;;;;5087758;28;13497;-68
2023/04/06 08:24:17;;;;;;;;;17.67;15.33;;;;;;;;5087681;28;13611;-69
2023/04/06 08:26:43;;;;;;;;;12.67;11.00;;;;;;;;5087212;28;14697;-70
2023/04/06 08:29:08;;;;;;;;;14.50;12.50;;;;;;;;5087544;28;13519;-71
2023/04/06 08:31:34;;;;;;;;;15.67;12.00;;;;;;;;5087506;28;13513;-70
2023/04/06 08:34:00;;;;;;;;;12.00;12.00;;;;;;;;5087484;28;13429;-70
2023/04/06 08:36:25;;;;;;;;;11.00;11.00;;;;;;;;5087559;28;13490;-70
2023/04/06 08:38:51;;;;;;;;;13.00;11.00;;;;;;;;5087726;28;13431;-73
2023/04/06 08:41:19;;;;;;;;;10.00;9.67;;;;;;;;5087540;28;14371;-72
2023/04/06 08:43:48;;;;;;;;;10.00;9.00;;;;;;;;5086971;28;13454;-72
2023/04/06 08:46:14;;;;;;;;;10.00;9.00;;;;;;;;5088456;22;13558;-72
2023/04/06 08:48:40;;;;;;;;;9.00;8.00;;;;;;;;5044660;28;13548;-74
2023/04/06 08:51:05;;;;;;;;;7.80;7.80;;;;;;;;5045983;28;13503;-71
2023/04/06 08:53:31;;;;;;;;;8.25;8.25;;;;;;;;5044857;28;13937;-69
2023/04/06 08:55:57;;;;;;;;;9.33;9.00;;;;;;;;5046204;28;13691;-69
2023/04/06 08:58:23;;;;;;;;;9.00;9.00;;;;;;;;5045743;28;13500;-70
2023/04/06 09:00:49;;;;;;;;;9.20;8.60;;;;;;;;5045233;28;13502;-74
2023/04/06 09:03:15;;;;;;;;;8.00;8.00;;;;;;;;5045754;28;13455;-71
2023/04/06 09:05:40;;;;;;;;;11.60;10.20;;;;;;;;5045431;28;14195;-71
2023/04/06 09:08:06;;;;;;;;;11.00;11.00;;;;;;;;5045710;28;13605;-71
2023/04/06 09:10:32;;;;;;;;;10.00;10.00;;;;;;;;5045537;28;14310;-71
2023/04/06 09:13:07;;;;;;;;;11.75;11.00;;;;;;;;5045411;28;13564;-70
2023/04/06 09:15:33;;;;;;;;;23.80;16.00;;;;;;;;5045217;28;14292;-71
2023/04/06 09:17:58;;;;;;;;;13.00;13.00;;;;;;;;5044953;28;13520;-71
2023/04/06 09:20:26;;;;;;;;;12.00;11.00;;;;;;;;5045448;28;13512;-70
2023/04/06 09:22:51;;;;;;;;;7.80;7.80;;;;;;;;5044097;28;14234;-71
2023/04/06 09:25:21;;;;;;;;;12.00;9.00;;;;;;;;5045881;28;13429;-70
2023/04/06 09:27:46;;;;;;;;;9.00;9.00;;;;;;;;5047916;28;13447;-70
2023/04/06 09:30:13;;;;;;;;;8.00;7.00;;;;;;;;5045705;28;13692;-71
2023/04/06 09:32:45;;;;;;;;;8.00;8.00;;;;;;;;5045893;28;13446;-70
2023/04/06 09:35:11;;;;;;;;;11.40;8.80;;;;;;;;5044702;28;13562;-71
2023/04/06 09:37:36;;;;;;;;;8.50;7.75;;;;;;;;5045079;28;13532;-70
2023/04/06 09:40:02;;;;;;;;;10.00;10.00;;;;;;;;5045151;28;13422;-71
2023/04/06 09:42:28;;;;;;;;;14.00;11.00;;;;;;;;5044827;28;14342;-71
2023/04/06 09:44:54;;;;;;;;;9.25;9.25;;;;;;;;5045229;28;13613;-71
2023/04/06 09:47:20;;;;;;;;;9.60;9.60;;;;;;;;5044927;28;13657;-71
2023/04/06 09:49:47;;;;;;;;;11.00;11.00;;;;;;;;5044996;28;14139;-71
2023/04/06 09:52:14;;;;;;;;;12.20;11.00;;;;;;;;5044453;28;13563;-71
2023/04/06 09:54:40;;;;;;;;;12.00;11.00;;;;;;;;5043902;28;13491;-72
2023/04/06 09:57:11;;;;;;;;;14.00;12.00;;;;;;;;5045059;28;13591;-72
2023/04/06 09:59:51;;;;;;;;;11.75;10.50;;;;;;;;5045170;28;13524;-71
2023/04/06 10:02:23;;;;;;;;;11.60;9.60;;;;;;;;5044981;28;13498;-72
2023/04/06 10:04:58;;;;;;;;;11.60;9.20;;;;;;;;5044895;28;14220;-71
2023/04/06 10:07:25;;;;;;;;;13.80;11.80;;;;;;;;5044952;28;13698;-71
2023/04/06 10:09:53;;;;;;;;;13.50;11.50;;;;;;;;5044613;28;13498;-71
2023/04/06 10:12:19;;;;;;;;;9.50;9.50;;;;;;;;5044734;28;13548;-71
2023/04/06 10:14:44;;;;;;;;;12.00;12.00;;;;;;;;5045054;28;13501;-70
2023/04/06 10:17:11;;;;;;;;;12.75;11.75;;;;;;;;5045625;28;14292;-70
2023/04/06 10:19:42;;;;;;;;;13.50;11.50;;;;;;;;5048693;28;13472;-71
2023/04/06 10:22:09;;;;;;;;;11.80;11.80;;;;;;;;5048490;28;13539;-71
2023/04/06 10:24:35;;;;;;;;;12.00;11.75;;;;;;;;5048600;28;13489;-71
2023/04/06 10:27:01;;;;;;;;;10.40;9.20;;;;;;;;5048467;28;14156;-71
2023/04/06 10:29:26;;;;;;;;;9.25;9.25;;;;;;;;5047939;28;13453;-69
2023/04/06 10:31:52;;;;;;;;;10.25;9.25;;;;;;;;5048295;28;14266;-71
2023/04/06 10:34:17;;;;;;;;;12.50;11.50;;;;;;;;5046841;28;13710;-69
2023/04/06 10:36:42;;;;;;;;;12.00;12.00;;;;;;;;5048105;28;13507;-70
2023/04/06 10:39:08;;;;;;;;;13.50;13.50;;;;;;;;5048132;28;13302;-70
2023/04/06 10:41:43;;;;;;;;;12.25;12.25;;;;;;;;5048132;28;13542;-70
2023/04/06 10:44:17;;;;;;;;;12.00;10.75;;;;;;;;5048163;28;13559;-71
2023/04/06 10:46:51;;;;;;;;;11.00;11.00;;;;;;;;5047817;28;14407;-70
2023/04/06 10:49:17;;;;;;;;;11.20;10.00;;;;;;;;5048017;28;13460;-71
2023/04/06 10:51:42;;;;;;;;;15.50;14.00;;;;;;;;5047893;28;13589;-71
2023/04/06 10:54:09;;;;;;;;;16.00;10.00;;;;;;;;5047864;28;13511;-70
2023/04/06 10:56:36;;;;;;;;;11.20;11.20;;;;;;;;5047864;28;13642;-70
2023/04/06 10:59:02;;;;;;;;;10.00;10.00;;;;;;;;5047688;28;13519;-70
2023/04/06 11:01:27;;;;;;;;;15.00;14.00;;;;;;;;5047727;28;13489;-71
2023/04/06 11:03:58;;;;;;;;;16.75;13.00;;;;;;;;5047719;28;13516;-71
2023/04/06 11:06:31;;;;;;;;;15.50;12.50;;;;;;;;5047403;28;13532;-70
2023/04/06 11:08:57;;;;;;;;;19.00;16.25;;;;;;;;5047814;28;13483;-70
2023/04/06 11:11:26;;;;;;;;;16.20;15.20;;;;;;;;5047524;28;13673;-70
2023/04/06 11:14:01;;;;;;;;;14.20;14.20;;;;;;;;5047454;28;14370;-72
2023/04/06 11:16:32;;;;;;;;;14.60;14.60;;;;;;;;5047871;28;14286;-69
2023/04/06 11:18:59;;;;;;;;;42.00;36.75;;;;;;;;5047845;28;13497;-70
2023/04/06 11:21:36;;;;;;;;;28.00;28.00;;;;;;;;5046196;28;13603;-71
2023/04/06 11:24:08;;;;;;;;;17.40;17.40;;;;;;;;5047594;28;13636;-71
2023/04/06 11:26:43;;;;;;;;;18.25;17.00;;;;;;;;5047655;28;13602;-71
2023/04/06 11:29:09;;;;;;;;;15.00;13.50;;;;;;;;5046184;28;13514;-71
2023/04/06 11:31:42;;;;;;;;;16.00;14.67;;;;;;;;5047347;28;13512;-71
2023/04/06 11:34:25;;;;;;;;;14.75;12.50;;;;;;;;5048029;28;14287;-70
2023/04/06 11:37:01;;;;;;;;;17.20;15.00;;;;;;;;5046041;28;13491;-71
2023/04/06 11:39:27;;;;;;;;;18.00;18.00;;;;;;;;5047371;28;13455;-70
2023/04/06 11:42:02;;;;;;;;;16.00;12.40;;;;;;;;5046510;28;14321;-71
2023/04/06 11:44:33;;;;;;;;;16.75;13.75;;;;;;;;5061773;22;14321;-74
2023/04/06 11:46:59;;;;;;;;;32.50;29.75;;;;;;;;5006629;28;13697;-74
2023/04/06 11:49:28;;;;;;;;;16.00;14.75;;;;;;;;5008497;28;13710;-74
2023/04/06 11:51:53;;;;;;;;;17.40;15.80;;;;;;;;5008596;28;13529;-75
2023/04/06 11:54:29;;;;;;;;;14.67;14.67;;;;;;;;5008708;28;13554;-75
2023/04/06 11:56:55;;;;;;;;;13.00;13.00;;;;;;;;5008298;28;13536;-75
2023/04/06 11:59:21;;;;;;;;;17.00;14.60;;;;;;;;5007859;28;13524;-74
2023/04/06 12:01:46;;;;;;;;;17.75;15.00;;;;;;;;5008172;28;13603;-74
2023/04/06 12:04:11;;;;;;;;;15.25;15.25;;;;;;;;5008302;28;14317;-75
2023/04/06 12:06:37;;;;;;;;;14.25;12.75;;;;;;;;5008392;28;13546;-74
2023/04/06 12:09:02;;;;;;;;;9.50;9.50;;;;;;;;5008377;28;13551;-75
2023/04/06 12:11:27;;;;;;;;;14.75;13.75;;;;;;;;5008365;28;13564;-75
2023/04/06 12:13:53;;;;;;;;;14.00;12.50;;;;;;;;5007877;28;13715;-75
2023/04/06 12:16:19;;;;;;;;;12.00;12.00;;;;;;;;5007731;28;13582;-75
2023/04/06 12:18:44;;;;;;;;;12.00;10.00;;;;;;;;5007800;28;13393;-76
2023/04/06 12:21:10;;;;;;;;;11.50;11.50;;;;;;;;5002902;28;14162;-76
2023/04/06 12:23:35;;;;;;;;;10.00;10.00;;;;;;;;5007183;28;13506;-75
2023/04/06 12:26:01;;;;;;;;;;;;;;;;;;5007830;28;13657;-75
2023/04/06 12:28:27;;;;;;;;;14.00;14.00;;;;;;;;5001810;28;13459;-76
2023/04/06 12:30:52;;;;;;;;;16.00;15.00;;;;;;;;5004350;28;13690;-73
2023/04/06 12:33:18;;;;;;;;;10.00;8.67;;;;;;;;4989700;28;13423;-69
2023/04/06 12:35:43;;;;;;;;;19.00;17.00;;;;;;;;4999014;28;13454;-69
2023/04/06 12:38:08;;;;;;;;;11.00;9.00;;;;;;;;5006855;28;13645;-70
2023/04/06 12:40:38;;;;;;;;;10.00;8.50;;;;;;;;4994122;28;13479;-69
2023/04/06 12:43:03;;;;;;;;;7.25;7.25;;;;;;;;5006331;28;13628;-70
2023/04/06 12:45:30;;;;;;;;;11.00;9.00;;;;;;;;5008270;28;13581;-70
2023/04/06 12:47:55;;;;;;;;;7.40;7.40;;;;;;;;5006238;28;14312;-69
2023/04/06 12:50:21;;;;;;;;;10.50;10.00;;;;;;;;4998720;28;13492;-71
2023/04/06 12:52:47;;;;;;;;;9.00;9.00;;;;;;;;4999209;28;13647;-71
2023/04/06 12:55:12;;;;;;;;;11.75;9.50;;;;;;;;5007827;28;13478;-70
2023/04/06 12:57:37;;;;;;;;;9.00;8.00;;;;;;;;5007474;28;14433;-70
2023/04/06 13:00:03;;;;;;;;;11.00;11.00;;;;;;;;5007575;28;13478;-70
2023/04/06 13:02:29;;;;;;;;;9.60;9.60;;;;;;;;4998088;28;14297;-70
2023/04/06 13:04:55;;;;;;;;;7.75;7.25;;;;;;;;4995894;28;13488;-71
2023/04/06 13:07:21;;;;;;;;;8.00;7.50;;;;;;;;4997005;28;13479;-70
2023/04/06 13:09:49;;;;;;;;;8.25;8.00;;;;;;;;4995528;28;14470;-71
2023/04/06 13:12:14;;;;;;;;;8.80;8.80;;;;;;;;4995523;28;13547;-71
2023/04/06 13:14:40;;;;;;;;;8.00;8.00;;;;;;;;4997124;28;13523;-70
2023/04/06 13:17:06;;;;;;;;;24.25;23.25;;;;;;;;5000775;28;13457;-71
2023/04/06 13:19:31;;;;;;;;;24.50;22.50;;;;;;;;5005625;28;13735;-71
2023/04/06 13:21:56;;;;;;;;;22.00;20.00;;;;;;;;5005533;28;13680;-71
2023/04/06 13:24:22;;;;;;;;;14.50;11.75;;;;;;;;5006306;28;13704;-71
2023/04/06 13:26:48;;;;;;;;;9.20;8.00;;;;;;;;5002734;28;13528;-71
2023/04/06 13:29:14;;;;;;;;;10.75;10.75;;;;;;;;5005642;28;13454;-71
2023/04/06 13:31:39;;;;;;;;;12.00;12.00;;;;;;;;5005769;28;13523;-72
2023/04/06 13:34:05;;;;;;;;;9.00;9.00;;;;;;;;5005475;28;13526;-71
2023/04/06 13:36:31;;;;;;;;;9.00;9.00;;;;;;;;5004624;28;13623;-70
2023/04/06 13:38:57;;;;;;;;;14.25;12.00;;;;;;;;5005819;28;13543;-71
2023/04/06 13:41:23;;;;;;;;;14.75;10.75;;;;;;;;5004429;28;13593;-72
2023/04/06 13:43:49;;;;;;;;;8.80;8.80;;;;;;;;5002473;28;14095;-71
2023/04/06 13:46:15;;;;;;;;;11.80;8.80;;;;;;;;5005373;28;13503;-70
2023/04/06 13:48:40;;;;;;;;;12.00;12.00;;;;;;;;5005747;28;13451;-70
2023/04/06 13:51:13;;;;;;;;;12.50;8.50;;;;;;;;5020884;28;13551;-70
2023/04/06 13:53:39;;;;;;;;;10.50;10.50;;;;;;;;5008786;28;14248;-71
2023/04/06 13:56:04;;;;;;;;;12.50;10.50;;;;;;;;5001108;28;13686;-70
2023/04/06 13:58:30;;;;;;;;;11.00;9.00;;;;;;;;4997739;28;14298;-71
2023/04/06 14:01:01;;;;;;;;;9.60;9.00;;;;;;;;4998774;28;14406;-70
2023/04/06 14:03:27;;;;;;;;;14.00;12.25;;;;;;;;5000172;28;13532;-70
2023/04/06 14:05:52;;;;;;;;;11.33;9.00;;;;;;;;4998864;28;13523;-71
2023/04/06 14:08:18;;;;;;;;;11.75;9.00;;;;;;;;4998092;28;14195;-70
2023/04/06 14:10:43;;;;;;;;;12.50;12.00;;;;;;;;5000159;28;13481;-71
2023/04/06 14:13:08;;;;;;;;;10.67;9.33;;;;;;;;4998155;28;13538;-71
2023/04/06 14:15:34;;;;;;;;;12.00;9.75;;;;;;;;5000099;28;13517;-70
2023/04/06 14:18:00;;;;;;;;;9.50;9.50;;;;;;;;5008241;28;13522;-70
2023/04/06 14:20:26;;;;;;;;;11.00;11.00;;;;;;;;5008606;28;14314;-70
2023/04/06 14:22:52;;;;;;;;;13.50;12.00;;;;;;;;5003521;28;13598;-71
2023/04/06 14:25:18;;;;;;;;;12.75;12.75;;;;;;;;5008761;28;13391;-70
2023/04/06 14:27:43;;;;;;;;;13.75;11.25;;;;;;;;5009122;28;13566;-70
2023/04/06 14:30:09;;;;;;;;;13.40;13.40;;;;;;;;5008872;28;13767;-70
2023/04/06 14:32:37;;;;;;;;;11.60;11.60;;;;;;;;5009078;28;13678;-69
2023/04/06 14:35:03;;;;;;;;;9.25;9.25;;;;;;;;5008874;28;13558;-71
2023/04/06 14:37:28;;;;;;;;;13.25;13.00;;;;;;;;5008886;28;13528;-77
2023/04/06 14:39:54;;;;;;;;;9.00;9.00;;;;;;;;5007166;28;13584;-72
2023/04/06 14:42:19;;;;;;;;;12.75;12.75;;;;;;;;5006455;28;14431;-73
2023/04/06 14:44:45;;;;;;;;;11.50;11.50;;;;;;;;5009488;28;13564;-72
2023/04/06 14:47:10;;;;;;;;;11.00;10.50;;;;;;;;5009916;28;13551;-72
2023/04/06 14:49:36;;;;;;;;;13.00;10.00;;;;;;;;5009922;28;13518;-71
2023/04/06 14:52:01;;;;;;;;;12.00;9.00;;;;;;;;5007329;28;13503;-81
2023/04/06 14:54:27;;;;;;;;;12.50;12.50;;;;;;;;5009367;28;14276;-76
2023/04/06 14:56:52;;;;;;;;;24.00;21.50;;;;;;;;5009627;28;13597;-76
2023/04/06 14:59:17;;;;;;;;;16.50;15.00;;;;;;;;5009092;28;13574;-74
2023/04/06 15:01:42;;;;;;;;;10.67;10.67;;;;;;;;5018849;28;13545;-74
2023/04/06 15:04:08;;;;;;;;;12.50;12.50;;;;;;;;5026964;28;14318;-78
2023/04/06 15:06:33;;;;;;;;;17.50;15.00;;;;;;;;5015145;28;13544;-73
2023/04/06 15:08:59;;;;;;;;;18.00;18.00;;;;;;;;5009667;28;13710;-74
2023/04/06 15:11:24;;;;;;;;;11.20;11.20;;;;;;;;5002502;28;14239;-73
2023/04/06 15:13:50;;;;;;;;;11.50;10.50;;;;;;;;4998177;28;13646;-73
2023/04/06 15:16:15;;;;;;;;;13.50;10.00;;;;;;;;5001804;28;13549;-70
2023/04/06 15:18:41;;;;;;;;;15.00;13.00;;;;;;;;4995281;28;14515;-72
2023/04/06 15:21:06;;;;;;;;;11.50;11.25;;;;;;;;5002995;28;14118;-71
2023/04/06 15:23:33;;;;;;;;;16.80;15.20;;;;;;;;5028947;28;14284;-73
2023/04/06 15:25:59;;;;;;;;;13.75;13.00;;;;;;;;5012705;28;13670;-70
2023/04/06 15:28:25;;;;;;;;;10.00;10.00;;;;;;;;5008745;28;13745;-72
2023/04/06 15:30:50;;;;;;;;;14.00;12.75;;;;;;;;5005390;28;13522;-70
2023/04/06 15:33:16;;;;;;;;;14.33;11.33;;;;;;;;4994606;28;14309;-69
2023/04/06 15:35:42;;;;;;;;;12.50;12.50;;;;;;;;4989318;28;13532;-70
2023/04/06 15:38:08;;;;;;;;;14.25;13.25;;;;;;;;4989262;28;13543;-71
2023/04/06 15:40:33;;;;;;;;;9.80;9.80;;;;;;;;5005962;28;14234;-73
2023/04/06 15:42:59;;;;;;;;;15.00;14.00;;;;;;;;5027216;28;13509;-72
2023/04/06 15:45:24;;;;;;;;;9.00;9.00;;;;;;;;5028203;28;14079;-73
2023/04/06 15:47:49;;;;;;;;;;;;;;;;;;5006577;28;13605;-75
2023/04/06 15:50:15;;;;;;;;;12.00;9.00;;;;;;;;4996786;28;13473;-74
2023/04/06 15:52:40;;;;;;;;;9.00;9.00;;;;;;;;5020496;28;14120;-70
2023/04/06 15:55:06;;;;;;;;;10.00;9.00;;;;;;;;5027374;28;13477;-69
2023/04/06 15:57:32;;;;;;;;;6.50;6.50;;;;;;;;5027595;28;14200;-71
2023/04/06 15:59:58;;;;;;;;;10.00;8.00;;;;;;;;5025329;28;15474;-70
2023/04/06 16:02:23;;;;;;;;;14.00;8.00;;;;;;;;5010428;28;13678;-69
2023/04/06 16:04:49;;;;;;;;;10.00;9.00;;;;;;;;5006118;28;13439;-71
2023/04/06 16:07:14;;;;;;;;;9.00;9.00;;;;;;;;5006274;28;13551;-69
2023/04/06 16:09:40;;;;;;;;;8.00;7.00;;;;;;;;5006512;28;14040;-72
2023/04/06 16:12:05;;;;;;;;;;;;;;;;;;4986930;28;13258;-71
2023/04/06 16:14:30;;;;;;;;;;;;;;;;;;4980887;28;13528;-70
2023/04/06 16:16:55;;;;;;;;;;;;;;;;;;4968592;28;13556;-71
2023/04/06 16:19:20;;;;;;;;;;;;;;;;;;4951375;28;13705;-73
2023/04/06 16:21:46;;;;;;;;;;;;;;;;;;4947993;28;13579;-72
2023/04/06 16:24:11;;;;;;;;;;;;;;;;;;4950784;28;13677;-76
2023/04/06 16:26:36;;;;;;;;;;;;;;;;;;4946647;28;13693;-74
2023/04/06 16:29:01;;;;;;;;;;;;;;;;;;4944597;28;13517;-73
2023/04/06 16:31:27;;;;;;;;;;;;;;;;;;4963109;28;13635;-72
2023/04/06 16:33:52;;;;;;;;;;;;;;;;;;4954499;28;14525;-73
2023/04/06 16:36:17;;;;;;;;;;;;;;;;;;4950123;28;13563;-73
2023/04/06 16:38:42;;;;;;;;;;;;;;;;;;4950610;28;13693;-74
2023/04/06 16:41:07;;;;;;;;;;;;;;;;;;4952892;28;13424;-74
2023/04/06 16:43:32;;;;;;;;;;;;;;;;;;4954994;28;13544;-74
2023/04/06 16:45:58;;;;;;;;;;;;;;;;;;4956880;28;13550;-72
2023/04/06 16:48:23;;;;;;;;;;;;;;;;;;4958640;28;13710;-73
2023/04/06 16:50:48;;;;;;;;;;;;;;;;;;4959370;28;13546;-83
2023/04/06 16:53:13;;;;;;;;;;;;;;;;;;4959316;28;13708;-70
2023/04/06 16:55:39;;;;;;;;;;;;;;;;;;4964089;28;14498;-72
2023/04/06 16:58:04;;;;;;;;;;;;;;;;;;4961052;28;14341;-71
2023/04/06 17:00:29;;;;;;;;;;;;;;;;;;4941930;28;13584;-81
2023/04/06 17:02:54;;;;;;;;;;;;;;;;;;4956224;28;13550;-73
2023/04/06 17:05:23;;;;;;;;;;;;;;;;;;4955793;28;13631;-77
2023/04/06 17:07:48;;;;;;;;;;;;;;;;;;4953219;28;13520;-71
2023/04/06 17:10:13;;;;;;;;;;;;;;;;;;4951795;28;13577;-77
2023/04/06 17:12:38;;;;;;;;;;;;;;;;;;4955686;28;17549;-77
2023/04/06 17:15:03;;;;;;;;;;;;;;;;;;4943467;28;13536;-80
2023/04/06 17:17:29;;;;;;;;;;;;;;;;;;4953203;28;13580;-77
2023/04/06 17:19:54;;;;;;;;;;;;;;;;;;4941650;28;13641;-76
2023/04/06 17:22:19;;;;;;;;;;;;;;;;;;4972086;28;14223;-75
2023/04/06 17:24:44;;;;;;;;;;;;;;;;;;4975653;28;13779;-78
2023/04/06 17:27:09;;;;;;;;;;;;;;;;;;4958243;28;13662;-76
2023/04/06 17:29:35;;;;;;;;;;;;;;;;;;4961814;28;14386;-74
2023/04/06 17:32:00;;;;;;;;;;;;;;;;;;4963098;28;13580;-72
2023/04/06 17:34:25;;;;;;;;;;;;;;;;;;4961628;28;13676;-73
2023/04/06 17:36:50;;;;;;;;;;;;;;;;;;4950948;28;14373;-71
2023/04/06 17:39:16;;;;;;;;;;;;;;;;;;4956051;28;14590;-73
2023/04/06 17:41:41;;;;;;;;;;;;;;;;;;4963260;28;13612;-73
2023/04/06 17:44:06;;;;;;;;;;;;;;;;;;4959635;28;14324;-72
2023/04/06 17:46:32;;;;;;;;;;;;;;;;;;4958703;28;13484;-72
2023/04/06 17:48:57;;;;;;;;;;;;;;;;;;4952994;28;14245;-78
2023/04/06 17:51:23;;;;;;;;;;;;;;;;;;4952417;28;13767;-75
2023/04/06 17:53:48;;;;;;;;;;;;;;;;;;4974321;28;13683;-74
2023/04/06 17:56:14;;;;;;;;;;;;;;;;;;4962275;28;13639;-74
2023/04/06 17:58:39;;;;;;;;;;;;;;;;;;4946110;28;13568;-77
2023/04/06 18:01:04;;;;;;;;;;;;;;;;;;4944369;28;13580;-79
2023/04/06 18:03:29;;;;;;;;;;;;;;;;;;4944025;28;13766;-79
2023/04/06 18:05:56;;;;;;;;;;;;;;;;;;4941195;28;13506;-80
2023/04/06 18:08:21;;;;;;;;;;;;;;;;;;4988391;28;14045;-78
2023/04/06 18:10:47;;;;;;;;;;;;;;;;;;4970130;28;13729;-79
2023/04/06 18:13:12;;;;;;;;;12.00;11.00;;;;;;;;4990403;28;14455;-78
2023/04/06 18:15:38;;;;;;;;;13.50;10.50;;;;;;;;4994522;28;13531;-83
2023/04/06 18:18:04;;;;;;;;;16.75;15.75;;;;;;;;4986210;28;13651;-82
2023/04/06 18:20:29;;;;;;;;;16.50;13.00;;;;;;;;4984990;28;13784;-84
2023/04/06 18:22:55;;;;;;;;;15.75;14.00;;;;;;;;4986455;28;14428;-79
2023/04/06 18:25:20;;;;;;;;;14.50;14.50;;;;;;;;4986989;28;13546;-82
2023/04/06 18:27:45;;;;;;;;;17.00;16.00;;;;;;;;4983949;28;14306;-77
2023/04/06 18:30:11;;;;;;;;;19.50;16.50;;;;;;;;4985199;28;13591;-85
2023/04/06 18:32:37;;;;;;;;;14.00;14.00;;;;;;;;4986557;28;13799;-79
2023/04/06 18:35:02;;;;;;;;;21.00;19.00;;;;;;;;4986457;28;13583;-79
2023/04/06 18:37:27;;;;;;;;;20.60;19.00;;;;;;;;4986469;28;14515;-76
2023/04/06 18:39:53;;;;;;;;;16.50;15.00;;;;;;;;4988761;28;13676;-83
2023/04/06 18:42:19;;;;;;;;;17.75;17.75;;;;;;;;4987522;28;14096;-82
2023/04/06 18:44:45;;;;;;;;;15.00;13.20;;;;;;;;4989581;28;14301;-79
2023/04/06 18:47:10;;;;;;;;;14.00;14.00;;;;;;;;4989631;28;13617;-80
2023/04/06 18:49:35;;;;;;;;;16.33;15.67;;;;;;;;4989573;28;13586;-79
2023/04/06 18:52:03;;;;;;;;;17.00;15.50;;;;;;;;5004410;28;13599;-78
2023/04/06 18:54:29;;;;;;;;;15.00;14.00;;;;;;;;5009404;28;14245;-74
2023/04/06 18:56:55;;;;;;;;;17.00;17.00;;;;;;;;5009286;28;13580;-78
2023/04/06 18:59:20;;;;;;;;;15.00;14.20;;;;;;;;4996379;28;13679;-78
